createdAt,value
2022-11-28T00:03:01.086Z,5.30
2022-11-28T00:07:04.472Z,4.10
2022-11-28T00:11:09.645Z,4.03
2022-11-28T00:15:12.710Z,3.42
2022-11-28T00:19:15.688Z,3.13
2022-11-28T00:23:19.895Z,3.13
2022-11-28T00:27:22.895Z,3.97
2022-11-28T00:31:28.376Z,4.35
2022-11-28T00:35:31.131Z,4.95
2022-11-28T00:39:33.859Z,5.28
2022-11-28T00:43:37.652Z,4.72
2022-11-28T00:47:40.366Z,5.68
2022-11-28T00:51:43.224Z,4.22
2022-11-28T00:55:46.394Z,3.92
2022-11-28T00:59:49.100Z,3.95
2022-11-28T01:03:54.274Z,3.17
2022-11-28T01:07:57.247Z,3.70
2022-11-28T01:12:00.067Z,4.10
2022-11-28T01:16:02.824Z,3.80
2022-11-28T01:20:08.596Z,3.90
2022-11-28T01:24:11.431Z,4.65
2022-11-28T01:28:14.159Z,3.65
2022-11-28T01:32:17.034Z,3.47
2022-11-28T01:36:20.461Z,4.13
2022-11-28T01:40:23.343Z,4.00
2022-11-28T01:44:28.228Z,3.58
2022-11-28T01:48:39.876Z,4.25
2022-11-28T01:52:46.055Z,4.05
2022-11-28T01:56:53.595Z,3.80
2022-11-28T02:00:56.829Z,3.80
2022-11-28T02:05:03.814Z,3.35
2022-11-28T02:09:11.888Z,3.28
2022-11-28T02:13:28.728Z,3.83
2022-11-28T02:18:10.931Z,3.40
2022-11-28T02:22:32.475Z,3.30
2022-11-28T02:26:53.017Z,3.22
2022-11-28T02:31:14.554Z,3.17
2022-11-28T02:35:38.228Z,3.60
2022-11-28T02:40:01.534Z,3.92
2022-11-28T02:44:24.933Z,3.30
2022-11-28T02:48:37.963Z,3.10
2022-11-28T02:52:52.427Z,3.30
2022-11-28T02:56:55.597Z,3.45
2022-11-28T03:00:58.435Z,3.15
2022-11-28T03:05:11.110Z,3.35
2022-11-28T03:09:13.990Z,3.58
2022-11-28T03:13:34.090Z,3.53
2022-11-28T03:18:07.626Z,2.22
2022-11-28T03:22:22.693Z,2.65
2022-11-28T03:26:50.380Z,3.08
2022-11-28T03:31:16.156Z,3.75
2022-11-28T03:35:23.537Z,3.65
2022-11-28T03:39:32.180Z,3.03
2022-11-28T03:43:44.525Z,2.95
2022-11-28T03:47:54.263Z,3.60
2022-11-28T03:52:05.320Z,3.47
2022-11-28T03:56:13.949Z,3.05
2022-11-28T04:00:17.548Z,3.15
2022-11-28T04:04:39.113Z,2.95
2022-11-28T04:08:48.663Z,3.30
2022-11-28T04:13:02.792Z,3.28
2022-11-28T04:17:19.685Z,3.10
2022-11-28T04:21:41.797Z,3.08
2022-11-28T04:26:00.562Z,3.28
2022-11-28T04:30:05.622Z,2.92
2022-11-28T04:34:11.606Z,3.30
2022-11-28T04:38:14.766Z,2.78
2022-11-28T04:42:40.346Z,2.90
2022-11-28T04:46:48.216Z,2.92
2022-11-28T04:51:01.465Z,2.88
2022-11-28T04:55:29.050Z,3.47
2022-11-28T04:59:32.931Z,3.35
2022-11-28T05:03:41.163Z,2.88
2022-11-28T05:07:47.930Z,2.80
2022-11-28T05:11:50.851Z,2.30
2022-11-28T05:16:09.294Z,3.17
2022-11-28T05:20:12.446Z,2.70
2022-11-28T05:24:16.386Z,3.13
2022-11-28T05:28:19.132Z,3.50
2022-11-28T05:32:22.050Z,3.55
2022-11-28T05:36:25.021Z,3.30
2022-11-28T05:40:29.257Z,2.90
2022-11-28T05:44:33.138Z,2.50
2022-11-28T05:48:35.942Z,2.60
2022-11-28T05:52:38.611Z,2.88
2022-11-28T05:56:42.600Z,2.92
2022-11-28T06:00:45.559Z,3.50
2022-11-28T06:04:53.205Z,3.40
2022-11-28T06:08:56.057Z,4.13
2022-11-28T06:12:58.793Z,4.45
2022-11-28T06:17:01.570Z,4.28
2022-11-28T06:21:05.934Z,4.13
2022-11-28T06:25:11.021Z,4.72
2022-11-28T06:29:13.783Z,4.25
2022-11-28T06:33:18.068Z,4.55
2022-11-28T06:37:20.720Z,4.68
2022-11-28T06:41:23.545Z,4.07
2022-11-28T06:45:26.477Z,4.90
2022-11-28T06:49:29.257Z,7.03
2022-11-28T06:53:33.349Z,7.20
2022-11-28T06:57:37.022Z,5.82
2022-11-28T07:01:39.861Z,5.68
2022-11-28T07:05:42.539Z,6.22
2022-11-28T07:09:45.517Z,5.78
2022-11-28T07:13:50.138Z,5.57
2022-11-28T07:17:53.637Z,5.18
2022-11-28T07:21:56.294Z,5.07
2022-11-28T07:26:01.096Z,5.80
2022-11-28T07:30:04.165Z,4.45
2022-11-28T07:34:06.874Z,5.30
2022-11-28T07:38:09.571Z,5.38
2022-11-28T07:42:12.752Z,4.85
2022-11-28T07:46:17.878Z,5.72
2022-11-28T07:50:20.813Z,4.65
2022-11-28T07:54:23.841Z,6.00
2022-11-28T07:58:28.116Z,6.18
2022-11-28T08:02:32.767Z,5.68
2022-11-28T08:06:40.943Z,4.38
2022-11-28T08:10:44.367Z,3.70
2022-11-28T08:14:47.081Z,4.15
2022-11-28T08:18:51.277Z,4.18
2022-11-28T08:22:54.174Z,4.90
2022-11-28T08:26:57.220Z,6.47
2022-11-28T08:31:02.621Z,6.25
2022-11-28T08:35:05.937Z,7.50
2022-11-28T08:39:23.441Z,8.05
2022-11-28T08:43:27.460Z,7.55
2022-11-28T08:47:30.188Z,7.13
2022-11-28T08:51:33.026Z,5.80
2022-11-28T08:55:40.584Z,7.78
2022-11-28T08:59:44.779Z,7.07
2022-11-28T09:03:48.458Z,6.72
2022-11-28T09:07:54.366Z,5.78
2022-11-28T09:11:57.239Z,4.45
2022-11-28T09:16:00.017Z,5.35
2022-11-28T09:20:02.961Z,4.90
2022-11-28T09:24:06.790Z,5.40
2022-11-28T09:28:09.644Z,6.38
2022-11-28T09:32:12.386Z,5.80
2022-11-28T09:36:18.826Z,6.35
2022-11-28T09:40:33.004Z,6.63
2022-11-28T09:44:51.858Z,9.98
2022-11-28T09:48:58.205Z,18.33
2022-11-28T09:53:15.323Z,7.55
2022-11-28T09:57:36.190Z,6.38
2022-11-28T10:01:48.924Z,6.63
2022-11-28T10:06:19.244Z,6.57
2022-11-28T10:10:55.432Z,6.35
2022-11-28T10:15:07.874Z,6.03
2022-11-28T10:19:46.487Z,5.90
2022-11-28T10:23:45.360Z,5.15
2022-11-28T10:27:49.281Z,5.47
2022-11-28T10:31:57.427Z,5.90
2022-11-28T10:36:01.895Z,5.97
2022-11-28T10:40:17.083Z,5.53
2022-11-28T10:44:27.068Z,5.72
2022-11-28T10:48:42.101Z,6.03
2022-11-28T10:52:46.775Z,5.07
2022-11-28T10:56:59.770Z,5.03
2022-11-28T11:01:03.255Z,5.47
2022-11-28T11:05:07.655Z,5.78
2022-11-28T11:09:13.303Z,5.25
2022-11-28T11:13:25.553Z,5.97
2022-11-28T11:17:40.109Z,5.35
2022-11-28T11:22:22.227Z,6.10
2022-11-28T11:26:30.366Z,4.80
2022-11-28T11:30:41.815Z,4.50
2022-11-28T11:34:46.529Z,5.00
2022-11-28T11:38:49.337Z,4.43
2022-11-28T11:43:00.454Z,6.25
2022-11-28T11:47:10.507Z,5.55
2022-11-28T11:51:38.022Z,5.88
2022-11-28T11:55:48.820Z,6.40
2022-11-28T12:00:18.040Z,6.25
2022-11-28T12:04:45.783Z,6.32
2022-11-28T12:08:54.641Z,7.60
2022-11-28T12:12:57.726Z,6.95
2022-11-28T12:17:40.575Z,8.77
2022-11-28T12:22:06.317Z,9.18
2022-11-28T12:26:46.170Z,9.77
2022-11-28T12:31:08.649Z,9.98
2022-11-28T12:35:29.168Z,24.80
2022-11-28T12:39:38.131Z,8.68
2022-11-28T12:43:44.061Z,9.80
2022-11-28T12:47:55.685Z,12.15
2022-11-28T12:52:13.592Z,11.18
2022-11-28T12:56:28.237Z,12.23
2022-11-28T13:00:31.640Z,8.18
2022-11-28T13:04:40.787Z,8.88
2022-11-28T13:08:55.816Z,9.10
2022-11-28T13:13:13.927Z,8.02
2022-11-28T13:17:22.785Z,8.68
2022-11-28T13:21:43.529Z,7.57
2022-11-28T13:26:13.715Z,7.60
2022-11-28T13:30:25.927Z,6.60
2022-11-28T13:34:30.084Z,6.43
2022-11-28T13:39:00.286Z,7.10
2022-11-28T13:43:39.441Z,7.68
2022-11-28T13:47:42.362Z,7.10
2022-11-28T13:51:45.479Z,7.07
2022-11-28T13:55:49.565Z,7.88
2022-11-28T14:00:27.962Z,8.63
2022-11-28T14:04:32.834Z,9.00
2022-11-28T14:08:39.794Z,8.65
2022-11-28T14:13:06.452Z,12.75
2022-11-28T14:17:19.498Z,11.73
2022-11-28T14:21:46.396Z,10.25
2022-11-28T14:25:52.350Z,11.57
2022-11-28T14:29:59.634Z,10.50
2022-11-28T14:34:11.135Z,9.50
2022-11-28T14:38:33.629Z,11.18
2022-11-28T14:42:59.432Z,12.98
2022-11-28T14:47:29.511Z,12.07
2022-11-28T14:51:47.482Z,16.23
2022-11-28T14:55:52.092Z,16.35
2022-11-28T14:59:57.092Z,16.90
2022-11-28T15:04:46.466Z,25.55
2022-11-28T15:08:54.694Z,22.20
2022-11-28T15:13:19.930Z,25.35
2022-11-28T15:17:28.868Z,20.23
2022-11-28T15:21:43.808Z,17.92
2022-11-28T15:25:53.383Z,20.00
2022-11-28T15:30:01.430Z,18.40
2022-11-28T15:34:09.961Z,16.63
2022-11-28T15:38:14.680Z,15.27
2022-11-28T15:42:29.909Z,16.63
2022-11-28T15:46:34.851Z,17.83
2022-11-28T15:50:38.093Z,18.40
2022-11-28T15:54:42.641Z,25.75
2022-11-28T15:58:47.838Z,17.45
2022-11-28T16:02:50.942Z,21.92
2022-11-28T16:06:57.184Z,21.17
2022-11-28T16:15:05.369Z,22.55
2022-11-28T16:19:20.946Z,23.73
2022-11-28T16:23:50.348Z,24.35
2022-11-28T16:27:53.735Z,22.60
2022-11-28T16:32:07.751Z,21.23
2022-11-28T16:36:21.262Z,21.80
2022-11-28T16:40:24.631Z,20.88
2022-11-28T16:44:28.184Z,21.05
2022-11-28T16:48:37.028Z,20.60
2022-11-28T16:52:55.719Z,23.80
2022-11-28T16:57:10.035Z,20.38
2022-11-28T17:01:13.076Z,20.15
2022-11-28T17:05:16.034Z,20.55
2022-11-28T17:09:19.617Z,20.15
2022-11-28T17:13:22.328Z,19.02
2022-11-28T17:17:25.212Z,16.15
2022-11-28T17:21:44.646Z,21.23
2022-11-28T17:25:47.407Z,20.67
2022-11-28T17:29:50.118Z,15.93
2022-11-28T17:33:52.762Z,18.67
2022-11-28T17:37:55.419Z,19.02
2022-11-28T17:41:58.720Z,19.63
2022-11-28T17:46:01.535Z,20.30
2022-11-28T17:50:04.641Z,22.50
2022-11-28T17:54:10.524Z,20.98
2022-11-28T17:58:19.506Z,3.63
2022-11-28T18:02:22.555Z,3.20
2022-11-28T18:06:25.392Z,2.80
2022-11-28T18:10:29.011Z,3.40
2022-11-28T18:14:38.118Z,4.75
2022-11-28T18:18:42.525Z,3.53
2022-11-28T18:22:45.792Z,3.50
2022-11-28T18:26:48.496Z,3.00
2022-11-28T18:30:51.631Z,2.60
2022-11-28T18:34:54.386Z,2.80
2022-11-28T18:38:58.673Z,2.70
2022-11-28T18:43:03.185Z,2.47
2022-11-28T18:47:05.882Z,2.50
2022-11-28T18:51:16.387Z,2.50
2022-11-28T18:55:20.270Z,2.60
2022-11-28T18:59:23.347Z,2.95
2022-11-28T19:03:26.228Z,2.42
2022-11-28T19:07:29.257Z,2.03
2022-11-28T19:11:32.789Z,2.30
2022-11-28T19:15:39.925Z,2.35
2022-11-28T19:23:47.309Z,2.13
2022-11-28T19:27:50.128Z,2.50
2022-11-28T19:31:53.419Z,2.72
2022-11-28T19:36:00.558Z,2.78
2022-11-28T19:40:04.092Z,3.00
2022-11-28T19:44:06.799Z,3.08
2022-11-28T19:48:09.484Z,2.70
2022-11-28T19:52:12.322Z,2.40
2022-11-28T19:56:18.483Z,2.38
2022-11-28T20:00:21.729Z,2.60
2022-11-28T20:04:24.504Z,2.60
2022-11-28T20:08:28.782Z,2.38
2022-11-28T20:12:32.046Z,2.90
2022-11-28T20:16:36.380Z,2.33
2022-11-28T20:20:39.778Z,3.63
2022-11-28T20:24:44.163Z,4.47
2022-11-28T20:28:47.825Z,4.20
2022-11-28T20:32:50.762Z,4.88
2022-11-28T20:36:53.899Z,5.88
2022-11-28T20:41:05.540Z,6.45
2022-11-28T20:45:08.758Z,3.10
2022-11-28T20:49:11.910Z,2.40
2022-11-28T20:53:14.683Z,2.22
2022-11-28T20:57:22.075Z,2.00
2022-11-28T21:01:27.063Z,1.70
2022-11-28T21:05:30.450Z,5.10
2022-11-28T21:09:33.077Z,3.30
2022-11-28T21:13:36.091Z,4.28
2022-11-28T21:17:39.133Z,1.73
2022-11-28T21:21:43.214Z,2.20
2022-11-28T21:25:46.180Z,1.98
2022-11-28T21:29:52.489Z,1.83
2022-11-28T21:33:56.670Z,2.42
2022-11-28T21:37:59.309Z,1.90
2022-11-28T21:42:02.509Z,1.70
2022-11-28T21:46:06.156Z,1.70
2022-11-28T21:50:09.940Z,1.70
2022-11-28T21:54:13.476Z,1.52
2022-11-28T21:58:16.628Z,1.40
2022-11-28T22:02:19.828Z,1.52
2022-11-28T22:06:25.461Z,1.42
2022-11-28T22:14:36.794Z,2.05
2022-11-28T22:18:39.851Z,1.80
2022-11-28T22:22:43.843Z,1.88
2022-11-28T22:26:46.532Z,2.80
2022-11-28T22:30:49.457Z,2.80
2022-11-28T22:34:53.542Z,3.83
2022-11-28T22:38:57.804Z,3.53
2022-11-28T22:43:01.182Z,1.92
2022-11-28T22:47:04.057Z,1.70
2022-11-28T22:51:19.197Z,1.75
2022-11-28T22:55:21.930Z,1.73
2022-11-28T22:59:24.659Z,2.08
2022-11-28T23:03:27.412Z,1.77
2022-11-28T23:07:30.268Z,1.70
2022-11-28T23:11:35.577Z,1.65
2022-11-28T23:15:44.404Z,1.90
2022-11-28T23:19:50.325Z,1.70
2022-11-28T23:23:53.742Z,1.70
2022-11-28T23:27:56.627Z,1.58
2022-11-28T23:31:59.797Z,1.50
2022-11-28T23:36:16.643Z,1.58
2022-11-28T23:40:19.709Z,1.42
2022-11-28T23:44:22.507Z,1.42
2022-11-28T23:48:25.259Z,1.38
2022-11-28T23:52:28.000Z,1.30
2022-11-28T23:56:33.409Z,1.40
